Time;durP1;ratioP1;P1;durP2;ratioP2;P2;SDS_P1;SDS_P2;PMS_P1;PMS_P2;Temp;Humidity;BMP_temperature;BMP_pressure;BME280_temperature;BME280_humidity;BME280_pressure;Samples;Min_cycle;Max_cycle;Signal;HPM_P1;HPM_P2
2023/12/15 00:02:33;;;;;;;7.20;5.97;;;;;;;3.19;60.41;101166.69;10455135;28;20259;-71
2023/12/15 00:07:47;;;;;;;9.13;5.97;;;;;;;4.82;57.66;100997.13;10429079;28;20963;-71
2023/12/15 00:12:56;;;;;;;7.50;5.80;;;;;;;4.58;57.67;101048.41;10440505;28;20230;-72
2023/12/15 00:18:05;;;;;;;7.03;5.97;;;;;;;4.72;57.29;101085.31;10440183;28;20282;-70
2023/12/15 00:23:13;;;;;;;8.63;6.60;;;;;;;4.83;57.27;101079.25;10428052;28;20258;-71
2023/12/15 00:28:22;;;;;;;8.83;6.43;;;;;;;3.74;59.34;101222.16;10441786;28;20304;-71
2023/12/15 00:33:30;;;;;;;6.57;5.80;;;;;;;3.95;58.47;101166.84;10442127;28;20265;-72
2023/12/15 00:38:38;;;;;;;7.77;6.57;;;;;;;4.00;58.27;101154.97;10439406;28;20311;-69
2023/12/15 00:43:46;;;;;;;10.40;5.73;;;;;;;4.05;58.72;101175.84;10438216;28;20573;-72
2023/12/15 00:49:00;;;;;;;9.03;6.67;;;;;;;3.20;60.30;101237.16;10443442;28;20286;-73
2023/12/15 00:54:09;;;;;;;8.67;6.23;;;;;;;3.21;61.02;101185.09;10438947;28;20728;-72
2023/12/15 00:59:17;;;;;;;8.47;6.23;;;;;;;3.17;60.02;101232.06;10444358;28;20332;-71
2023/12/15 01:04:31;;;;;;;7.73;6.07;;;;;;;3.83;59.68;101132.34;10443662;28;20242;-71
2023/12/15 01:09:46;;;;;;;7.77;5.70;;;;;;;3.63;59.26;101199.03;10484406;28;20231;-71
2023/12/15 01:14:55;;;;;;;6.90;6.10;;;;;;;2.90;60.97;101254.03;10477491;28;20367;-71
2023/12/15 01:20:03;;;;;;;10.00;6.17;;;;;;;3.57;60.10;101141.22;10482014;28;20212;-71
2023/12/15 01:25:18;;;;;;;8.43;6.43;;;;;;;3.70;59.33;101196.81;10477216;28;20243;-72
2023/12/15 01:30:27;;;;;;;9.23;6.23;;;;;;;4.18;58.63;101167.88;10482273;28;20353;-71
2023/12/15 01:35:35;;;;;;;7.27;5.57;;;;;;;4.30;58.40;101171.47;10478307;28;20235;-72
2023/12/15 01:40:43;;;;;;;6.87;5.43;;;;;;;4.05;58.45;101289.75;10481007;28;20227;-71
2023/12/15 01:45:54;;;;;;;8.13;6.30;;;;;;;4.02;59.13;101255.53;10476420;28;20609;-71
2023/12/15 01:51:14;;;;;;;8.40;6.27;;;;;;;4.37;58.42;101236.34;10474273;28;20256;-70
2023/12/15 01:56:23;;;;;;;8.33;6.20;;;;;;;4.29;58.90;101254.56;10473706;28;20240;-72
2023/12/15 02:01:31;;;;;;;8.17;6.70;;;;;;;3.92;59.50;101303.00;10477846;28;20246;-70
2023/12/15 02:06:46;;;;;;;8.03;6.60;;;;;;;3.88;59.33;101330.63;10424091;28;20243;-71
2023/12/15 02:11:56;;;;;;;8.83;6.97;;;;;;;4.08;59.93;101271.00;10437753;28;20550;-72
2023/12/15 02:17:04;;;;;;;10.03;7.27;;;;;;;3.89;59.85;101316.44;10418359;28;20911;-72
2023/12/15 02:22:12;;;;;;;10.97;7.03;;;;;;;3.73;60.34;101337.81;10437378;28;20283;-70
2023/12/15 02:27:20;;;;;;;7.77;6.63;;;;;;;4.76;59.04;101170.81;10430875;28;20319;-71
2023/12/15 02:32:28;;;;;;;9.03;6.33;;;;;;;4.20;59.48;101256.06;10403609;28;20326;-72
2023/12/15 02:37:39;;;;;;;9.37;7.03;;;;;;;3.95;60.54;101300.13;10434230;28;20236;-72
2023/12/15 02:42:47;;;;;;;8.37;6.43;;;;;;;4.55;58.83;101253.59;10431904;28;20238;-71
2023/12/15 02:47:55;;;;;;;9.53;6.90;;;;;;;3.77;60.64;101331.34;10420662;28;20309;-70
2023/12/15 02:53:03;;;;;;;11.30;6.83;;;;;;;3.92;60.41;101295.03;10431571;28;20678;-72
2023/12/15 02:58:11;;;;;;;7.87;6.47;;;;;;;4.43;59.25;101235.09;10403501;28;20646;-72
2023/12/15 03:03:19;;;;;;;9.77;7.10;;;;;;;3.95;59.05;101379.59;10430853;28;20240;-71
2023/12/15 03:08:42;;;;;;;9.93;7.10;;;;;;;4.90;58.74;101194.53;10430589;28;20529;-72
2023/12/15 03:13:58;;;;;;;10.53;6.67;;;;;;;4.12;59.85;101314.88;10476814;28;20235;-71
2023/12/15 03:19:13;;;;;;;10.80;7.17;;;;;;;4.35;59.58;101307.19;10472702;28;20227;-71
2023/12/15 03:24:21;;;;;;;9.83;7.03;;;;;;;3.88;60.66;101348.31;10476606;28;20231;-71
2023/12/15 03:29:29;;;;;;;10.77;7.77;;;;;;;3.84;60.40;101345.03;10477651;28;20682;-71
2023/12/15 03:34:37;;;;;;;14.03;7.50;;;;;;;4.02;60.76;101311.16;10432269;28;20241;-71
2023/12/15 03:39:45;;;;;;;11.90;7.43;;;;;;;3.83;60.51;101343.31;10432627;28;20228;-71
2023/12/15 03:44:55;;;;;;;12.33;7.57;;;;;;;3.86;61.04;101306.03;10474920;28;20619;-71
2023/12/15 03:50:05;;;;;;;12.43;8.50;;;;;;;3.61;61.43;101313.00;10485820;28;20250;-71
2023/12/15 03:55:13;;;;;;;9.20;6.93;;;;;;;2.60;63.51;101414.56;10481818;28;20243;-70
2023/12/15 04:00:21;;;;;;;9.47;6.37;;;;;;;1.87;66.05;101384.44;10427993;28;20320;-71
2023/12/15 04:05:35;;;;;;;9.73;7.23;;;;;;;2.49;64.64;101302.41;10457095;28;20306;-71
2023/12/15 04:10:51;;;;;;;8.97;6.77;;;;;;;2.81;64.20;101248.50;10488751;28;20233;-71
2023/12/15 04:15:59;;;;;;;10.53;7.00;;;;;;;3.19;62.85;101253.13;10478662;28;20696;-70
2023/12/15 04:21:07;;;;;;;10.83;7.93;;;;;;;3.71;61.21;101246.19;10483771;28;20231;-73
2023/12/15 04:26:15;;;;;;;10.87;8.03;;;;;;;3.53;61.56;101301.19;10460180;28;20245;-70
2023/12/15 04:31:23;;;;;;;10.90;8.50;;;;;;;3.72;60.99;101317.56;10481505;28;20228;-71
2023/12/15 04:36:32;;;;;;;11.13;8.40;;;;;;;3.69;62.46;101248.94;10480086;28;20309;-72
2023/12/15 04:41:40;;;;;;;11.47;8.20;;;;;;;3.38;61.64;101390.38;10481491;28;20308;-71
2023/12/15 04:46:49;;;;;;;11.47;8.57;;;;;;;2.66;63.59;101469.72;10485216;28;20231;-71
2023/12/15 04:51:59;;;;;;;13.63;8.30;;;;;;;2.93;63.97;101347.38;10461520;28;20311;-71
2023/12/15 04:57:07;;;;;;;12.20;8.67;;;;;;;2.62;65.12;101365.94;10461465;28;20264;-71
2023/12/15 05:02:15;;;;;;;11.13;9.13;;;;;;;3.14;63.95;101322.19;10479236;28;20231;-71
2023/12/15 05:07:29;;;;;;;15.10;10.33;;;;;;;2.79;64.53;101385.19;10478267;28;20235;-72
2023/12/15 05:12:38;;;;;;;15.37;10.53;;;;;;;2.93;64.25;101389.69;10465441;28;20326;-73
2023/12/15 05:17:47;;;;;;;13.10;9.77;;;;;;;3.53;63.57;101293.25;10482179;28;20227;-73
2023/12/15 05:22:55;;;;;;;14.20;9.37;;;;;;;3.30;63.85;101334.47;10478392;28;20238;-73
2023/12/15 05:28:10;;;;;;;15.93;9.20;;;;;;;2.75;65.58;101387.19;10483586;28;20675;-74
2023/12/15 05:33:18;;;;;;;11.90;8.60;;;;;;;3.57;63.51;101300.06;10461230;28;20235;-73
2023/12/15 05:38:26;;;;;;;14.40;9.57;;;;;;;3.02;64.40;101384.66;10476550;28;20515;-73
2023/12/15 05:43:35;;;;;;;12.67;9.07;;;;;;;2.57;65.70;101452.59;10478741;28;20250;-73
2023/12/15 05:48:43;;;;;;;15.40;9.87;;;;;;;2.59;66.14;101434.84;10479939;28;20730;-73
2023/12/15 05:53:51;;;;;;;12.87;9.57;;;;;;;3.16;65.56;101322.97;10479774;28;20242;-73
2023/12/15 05:59:06;;;;;;;14.33;9.73;;;;;;;2.27;67.45;101449.97;10478611;28;20235;-73
2023/12/15 06:04:21;;;;;;;12.57;9.23;;;;;;;2.20;68.76;101394.00;10477085;28;20244;-81
2023/12/15 06:09:36;;;;;;;13.83;10.17;;;;;;;3.00;64.97;101430.69;10489278;28;20718;-73
2023/12/15 06:14:44;;;;;;;11.60;9.23;;;;;;;2.80;65.79;101445.06;10473123;28;20325;-73
2023/12/15 06:19:52;;;;;;;15.23;10.00;;;;;;;2.96;66.20;101397.44;10466440;28;20663;-70
2023/12/15 06:25:00;;;;;;;14.17;9.87;;;;;;;2.10;68.04;101514.34;10463696;28;20341;-71
2023/12/15 06:30:09;;;;;;;13.10;8.03;;;;;;;1.48;69.13;101604.78;10480492;28;20242;-70
2023/12/15 06:35:17;;;;;;;16.80;11.17;;;;;;;2.58;66.70;101474.59;10471767;28;20246;-72
2023/12/15 06:40:25;;;;;;;11.93;9.60;;;;;;;3.04;65.57;101426.88;10482422;28;20226;-71
2023/12/15 06:45:33;;;;;;;14.17;10.37;;;;;;;3.11;65.13;101478.47;10474067;28;20353;-72
2023/12/15 06:50:41;;;;;;;14.23;11.07;;;;;;;3.43;64.43;101487.06;10452255;28;20297;-70
2023/12/15 06:55:49;;;;;;;14.57;10.70;;;;;;;3.23;64.70;101511.28;10475114;28;20958;-70
2023/12/15 07:00:57;;;;;;;13.23;10.53;;;;;;;4.00;63.36;101440.19;10476912;28;20281;-71
2023/12/15 07:06:12;;;;;;;15.27;11.33;;;;;;;3.30;64.25;101562.03;10476170;28;20525;-70
2023/12/15 07:11:28;;;;;;;18.60;11.60;;;;;;;3.88;63.76;101463.03;10462701;28;20665;-69
2023/12/15 07:16:36;;;;;;;16.33;11.60;;;;;;;4.35;62.23;101475.00;10454046;28;20330;-71
2023/12/15 07:21:44;;;;;;;16.17;10.77;;;;;;;3.67;64.04;101541.22;10476041;28;20227;-70
2023/12/15 07:26:53;;;;;;;15.63;10.83;;;;;;;4.09;63.64;101481.16;10476743;28;20494;-70
2023/12/15 07:32:01;;;;;;;25.47;17.07;;;;;;;4.09;63.11;101503.19;10462083;28;20620;-70
2023/12/15 07:37:09;;;;;;;21.77;13.37;;;;;;;4.35;63.39;101464.41;10481063;28;20253;-71
2023/12/15 07:42:20;;;;;;;15.30;11.17;;;;;;;3.53;65.00;101558.81;10485591;28;20321;-71
2023/12/15 07:47:28;;;;;;;13.63;10.00;;;;;;;3.55;65.88;101496.03;10484902;28;20254;-71
2023/12/15 07:52:37;;;;;;;14.50;10.93;;;;;;;3.60;66.00;101491.31;10488774;28;20501;-72
2023/12/15 07:57:45;;;;;;;13.77;10.83;;;;;;;3.80;64.46;101539.47;10481464;28;20330;-71
2023/12/15 08:02:53;;;;;;;16.57;10.37;;;;;;;3.93;64.47;101528.97;10464872;28;20235;-70
2023/12/15 08:08:02;;;;;;;16.17;11.83;;;;;;;3.72;64.96;101560.31;10481530;28;20239;-70
2023/12/15 08:13:13;;;;;;;18.07;11.60;;;;;;;3.85;64.85;101542.72;10467722;28;20232;-70
2023/12/15 08:18:20;;;;;;;15.70;11.00;;;;;;;4.05;64.77;101498.19;10462936;28;20618;-71
2023/12/15 08:23:31;;;;;;;16.90;11.07;;;;;;;3.63;65.19;101583.78;10487794;28;20235;-71
2023/12/15 08:28:40;;;;;;;14.87;10.37;;;;;;;4.35;62.49;101606.69;10482609;28;20239;-69
2023/12/15 08:33:51;;;;;;;13.40;10.03;;;;;;;3.97;64.44;101562.28;10480065;28;20236;-72
2023/12/15 08:38:59;;;;;;;16.30;10.50;;;;;;;3.63;64.80;101634.09;10482778;28;20266;-70
2023/12/15 08:44:08;;;;;;;14.53;9.70;;;;;;;3.93;64.85;101564.25;10484237;28;20245;-71
2023/12/15 08:49:29;;;;;;;14.83;9.70;;;;;;;3.78;64.34;101657.91;10463512;28;20234;-71
2023/12/15 08:54:37;;;;;;;17.10;11.07;;;;;;;3.74;64.50;101640.50;10462642;28;20257;-71
2023/12/15 08:59:45;;;;;;;13.90;10.10;;;;;;;4.28;64.21;101533.78;10481722;28;20340;-71
2023/12/15 09:05:00;;;;;;;15.23;9.87;;;;;;;4.18;63.97;101578.59;10467198;28;20728;-71
2023/12/15 09:10:42;;;;;;;12.47;9.93;;;;;;;4.21;63.94;101575.75;10406001;28;20241;-71
2023/12/15 09:15:50;;;;;;;15.73;9.60;;;;;;;3.61;65.76;101614.81;10422645;28;20235;-70
2023/12/15 09:21:00;;;;;;;16.57;10.47;;;;;;;3.94;63.76;101677.22;10427797;28;20235;-72
2023/12/15 09:26:07;;;;;;;14.20;9.50;;;;;;;4.15;63.76;101631.78;10438381;28;20233;-71
2023/12/15 09:31:16;;;;;;;13.27;8.63;;;;;;;3.08;66.34;101756.41;10401396;28;20235;-70
2023/12/15 09:36:24;;;;;;;16.03;9.23;;;;;;;4.18;64.75;101583.88;10438384;28;20314;-70
2023/12/15 09:41:31;;;;;;;15.30;9.00;;;;;;;4.01;64.58;101670.59;10415647;28;20240;-71
2023/12/15 09:46:42;;;;;;;13.23;8.63;;;;;;;4.89;62.50;101608.47;10401856;28;20777;-70
2023/12/15 09:51:50;;;;;;;13.83;9.27;;;;;;;5.03;62.33;101588.97;10425184;28;20232;-72
2023/12/15 09:56:59;;;;;;;18.03;9.77;;;;;;;4.03;64.26;101716.38;10404121;28;20703;-72
2023/12/15 10:02:10;;;;;;;11.60;8.63;;;;;;;4.75;63.52;101606.75;10437049;28;20282;-70
2023/12/15 10:07:26;;;;;;;14.67;9.00;;;;;;;4.50;63.28;101676.44;10460573;28;20302;-72
2023/12/15 10:12:33;;;;;;;15.77;8.17;;;;;;;4.40;63.86;101671.69;10457833;28;20245;-70
2023/12/15 10:51:16;;;;;;;11.07;7.60;;;;;;;16.66;37.98;101755.91;10427459;27;21450;-34
2023/12/15 10:56:18;;;;;;;11.27;7.13;;;;;;;16.40;37.63;101865.13;10387980;28;20316;-34
2023/12/15 11:06:13;;;;;;;8.87;6.80;;;;;;;14.98;41.07;101790.66;10488160;27;20367;-77
2023/12/15 11:11:22;;;;;;;13.13;8.40;;;;;;;15.31;40.01;101855.47;10446678;28;20559;-76
2023/12/15 11:16:26;;;;;;;8.93;7.03;;;;;;;13.57;41.97;101917.31;10494324;28;20456;-72
2023/12/15 11:21:29;;;;;;;9.77;8.13;;;;;;;14.57;41.61;101825.53;10447459;28;20605;-73
2023/12/15 11:26:39;;;;;;;12.47;7.83;;;;;;;14.45;41.31;101864.56;10492473;28;20231;-71
2023/12/15 11:31:41;;;;;;;9.73;6.90;;;;;;;13.55;41.97;101849.38;10504828;28;20868;-79
2023/12/15 11:36:46;;;;;;;7.73;6.30;;;;;;;15.17;40.28;101812.97;10497375;28;20289;-76
2023/12/15 11:41:48;;;;;;;7.60;6.53;;;;;;;15.58;39.16;101813.88;10502519;28;20283;-72
2023/12/15 11:46:52;;;;;;;12.00;6.73;;;;;;;17.27;36.88;101842.59;10500131;28;20231;-72
2023/12/15 11:51:54;;;;;;;8.33;6.10;;;;;;;14.82;39.81;101880.44;10506570;28;20233;-72
2023/12/15 11:56:55;;;;;;;7.43;6.13;;;;;;;16.52;37.63;101838.56;10499219;28;20237;-77
2023/12/15 12:01:57;;;;;;;9.83;6.07;;;;;;;15.92;38.23;101842.53;10501301;28;20228;-72
2023/12/15 12:07:00;;;;;;;8.80;6.30;;;;;;;17.11;36.89;101811.09;10497203;28;20416;-71
2023/12/15 12:12:02;;;;;;;9.83;6.20;;;;;;;16.29;37.55;101845.72;10495180;28;20251;-69
2023/12/15 12:17:03;;;;;;;6.60;5.67;;;;;;;17.67;35.82;101854.19;10471297;28;20267;-70
2023/12/15 12:22:09;;;;;;;9.90;5.33;;;;;;;14.82;38.20;101936.19;10478501;28;20308;-70
2023/12/15 12:27:11;;;;;;;7.83;5.80;;;;;;;17.31;36.77;101762.78;10470392;28;20717;-70
2023/12/15 12:32:13;;;;;;;9.83;6.30;;;;;;;17.93;35.64;101793.34;10475017;28;20234;-74
2023/12/15 12:37:14;;;;;;;10.40;6.00;;;;;;;15.61;38.04;101837.00;10430052;28;20233;-72
2023/12/15 12:42:16;;;;;;;9.17;5.67;;;;;;;15.32;38.69;101816.72;10425594;28;20252;-72
2023/12/15 12:47:19;;;;;;;8.20;5.70;;;;;;;15.15;38.55;101786.19;10432109;28;20247;-73
2023/12/15 12:52:22;;;;;;;7.87;5.47;;;;;;;15.56;38.00;101823.16;10422322;28;20734;-72
2023/12/15 12:57:28;;;;;;;8.53;5.90;;;;;;;15.56;38.28;101810.50;10430986;28;21712;-73
2023/12/15 13:02:30;;;;;;;8.20;6.23;;;;;;;15.55;39.44;101706.28;10433902;28;20252;-72
2023/12/15 13:07:37;;;;;;;8.20;6.10;;;;;;;15.75;38.25;101793.13;10477354;28;20244;-72
2023/12/15 13:12:41;;;;;;;7.40;5.80;;;;;;;14.30;41.16;101690.09;10477922;28;20234;-72
2023/12/15 13:17:42;;;;;;;6.33;5.67;;;;;;;15.42;38.50;101793.13;10482473;28;20246;-70
2023/12/15 13:22:44;;;;;;;7.97;5.77;;;;;;;13.25;41.98;101733.13;10460389;28;20235;-70
2023/12/15 13:27:49;;;;;;;10.07;6.17;;;;;;;13.53;41.70;101692.72;10428001;28;20244;-71
2023/12/15 13:32:51;;;;;;;6.77;4.87;;;;;;;14.53;39.05;101821.50;10427255;28;20425;-68
2023/12/15 13:37:53;;;;;;;7.57;5.50;;;;;;;14.44;39.82;101709.31;10437116;28;20294;-70
2023/12/15 13:42:55;;;;;;;10.50;5.70;;;;;;;14.55;38.99;101788.00;10429446;28;20265;-70
2023/12/15 13:47:57;;;;;;;8.93;5.43;;;;;;;15.59;38.04;101801.22;10423511;28;20238;-69
2023/12/15 13:53:00;;;;;;;9.20;5.10;;;;;;;13.90;41.05;101693.41;10425010;28;20319;-69
2023/12/15 13:58:03;;;;;;;9.37;5.30;;;;;;;16.15;38.40;101660.91;10421134;28;20236;-70
2023/12/15 14:03:04;;;;;;;12.07;6.33;;;;;;;13.11;41.08;101725.63;10428224;28;20328;-69
2023/12/15 14:08:07;;;;;;;6.37;5.17;;;;;;;15.03;39.01;101760.53;10427315;28;20393;-69
2023/12/15 14:13:20;;;;;;;9.07;5.80;;;;;;;15.45;37.75;101822.47;10429222;28;21122;-71
2023/12/15 14:18:22;;;;;;;6.10;4.90;;;;;;;16.34;37.52;101725.31;10429310;28;20713;-70
2023/12/15 14:23:24;;;;;;;9.83;4.93;;;;;;;14.36;39.21;101774.78;10443984;28;20243;-74
2023/12/15 14:28:29;;;;;;;7.80;5.60;;;;;;;17.04;36.46;101715.47;10452229;28;20240;-66
2023/12/15 14:33:30;;;;;;;8.93;5.40;;;;;;;17.54;36.01;101708.63;10412063;28;20611;-69
2023/12/15 14:38:32;;;;;;;9.20;5.77;;;;;;;16.53;36.47;101813.22;10409240;28;20242;-69
2023/12/15 14:43:34;;;;;;;7.40;5.03;;;;;;;15.27;38.57;101732.75;10404463;28;20236;-70
2023/12/15 14:48:37;;;;;;;7.70;4.33;;;;;;;15.58;38.05;101780.66;10426395;28;20229;-69
2023/12/15 14:53:39;;;;;;;6.57;4.63;;;;;;;13.82;40.44;101748.88;10469567;28;20258;-68
2023/12/15 14:58:42;;;;;;;7.00;5.17;;;;;;;12.68;41.43;101751.34;10468697;28;20231;-69
2023/12/15 15:03:47;;;;;;;7.57;4.73;;;;;;;12.70;42.08;101733.25;10465382;28;20539;-69
2023/12/15 15:08:49;;;;;;;6.70;5.20;;;;;;;15.28;38.68;101737.97;10474463;28;20239;-69
2023/12/15 15:13:51;;;;;;;8.80;5.27;;;;;;;13.94;40.62;101640.97;10469393;28;20725;-69
2023/12/15 15:18:53;;;;;;;9.40;6.07;;;;;;;14.55;39.89;101641.69;10470044;28;20245;-70
2023/12/15 15:23:58;;;;;;;6.10;5.10;;;;;;;14.39;40.13;101643.34;10460515;28;20723;-70
2023/12/15 15:29:00;;;;;;;7.13;4.97;;;;;;;16.61;36.51;101725.88;10471593;28;20743;-69
2023/12/15 15:34:01;;;;;;;8.03;6.80;;;;;;;17.27;35.34;101829.06;10468024;28;20250;-69
2023/12/15 15:39:04;;;;;;;8.30;6.00;;;;;;;17.30;35.49;101812.47;10461513;28;20231;-69
2023/12/15 15:44:05;;;;;;;7.63;5.60;;;;;;;17.33;35.45;101749.91;10461107;28;20237;-69
2023/12/15 15:49:19;;;;;;;6.00;5.13;;;;;;;16.54;36.62;101777.06;10462173;28;20738;-69
2023/12/15 15:54:21;;;;;;;5.93;4.53;;;;;;;14.73;39.45;101652.31;10472573;28;20228;-70
2023/12/15 15:59:23;;;;;;;7.30;5.47;;;;;;;13.07;41.03;101735.81;10469476;28;20329;-70
2023/12/15 16:04:25;;;;;;;5.97;4.67;;;;;;;12.32;42.02;101746.72;10470329;28;20293;-70
2023/12/15 16:09:27;;;;;;;7.37;4.90;;;;;;;16.72;37.33;101635.41;10465421;28;20280;-69
2023/12/15 16:14:31;;;;;;;6.77;4.83;;;;;;;16.30;37.22;101725.84;10473828;28;20242;-69
2023/12/15 16:19:33;;;;;;;7.00;5.33;;;;;;;15.54;37.60;101784.66;10474091;28;20675;-70
2023/12/15 16:24:34;;;;;;;8.20;5.63;;;;;;;17.11;35.77;101813.81;10472436;28;20310;-70
2023/12/15 16:29:36;;;;;;;8.33;5.97;;;;;;;16.02;37.76;101766.75;10468697;28;20236;-79
2023/12/15 16:34:38;;;;;;;10.93;6.97;;;;;;;15.27;38.38;101789.41;10476255;28;20228;-72
2023/12/15 16:39:40;;;;;;;11.27;7.27;;;;;;;15.61;38.10;101781.16;10487068;28;20274;-82
2023/12/15 16:44:50;;;;;;;14.27;8.93;;;;;;;15.14;39.11;101711.69;10467872;28;20660;-70
2023/12/15 16:49:52;;;;;;;11.03;8.60;;;;;;;16.59;37.40;101719.81;10474842;28;20287;-70
2023/12/15 16:54:53;;;;;;;11.97;7.00;;;;;;;14.67;39.71;101764.28;10472709;28;20279;-71
2023/12/15 16:59:55;;;;;;;15.13;8.70;;;;;;;15.41;39.15;101718.59;10468190;28;20239;-71
2023/12/15 17:04:58;;;;;;;9.43;6.57;;;;;;;14.77;39.31;101766.84;10469872;28;20508;-71
2023/12/15 17:09:59;;;;;;;10.53;7.37;;;;;;;15.27;39.05;101765.97;10471359;28;20710;-71
2023/12/15 17:15:04;;;;;;;8.70;7.27;;;;;;;13.96;40.94;101734.00;10467941;28;20232;-71
2023/12/15 17:20:08;;;;;;;11.03;8.00;;;;;;;15.22;40.03;101654.19;10471802;28;20689;-71
2023/12/15 17:25:10;;;;;;;12.77;9.53;;;;;;;14.78;40.06;101764.00;10467722;28;20493;-70
2023/12/15 17:30:13;;;;;;;11.43;8.10;;;;;;;15.28;39.38;101715.56;10465812;28;20239;-70
2023/12/15 17:35:14;;;;;;;10.37;6.73;;;;;;;13.30;41.57;101840.25;10465118;28;20341;-70
2023/12/15 17:40:17;;;;;;;10.40;6.90;;;;;;;14.61;40.58;101713.78;10463751;28;20232;-71
2023/12/15 17:45:18;;;;;;;9.43;7.23;;;;;;;15.66;38.77;101804.94;10461971;28;20229;-71
2023/12/15 17:50:20;;;;;;;9.57;6.57;;;;;;;15.64;39.03;101761.94;10469351;28;20235;-70
2023/12/15 17:55:22;;;;;;;8.77;6.90;;;;;;;15.22;40.10;101760.22;10470895;28;20228;-71
2023/12/15 18:00:24;;;;;;;10.87;7.67;;;;;;;14.08;40.92;101785.72;10469384;28;20748;-70
2023/12/15 18:05:26;;;;;;;10.90;7.13;;;;;;;15.82;39.61;101648.34;10469185;28;20235;-70
2023/12/15 18:10:28;;;;;;;10.17;7.10;;;;;;;14.95;40.00;101796.41;10465086;28;20357;-71
2023/12/15 18:15:30;;;;;;;11.43;7.80;;;;;;;15.10;40.24;101702.22;10463032;28;20235;-71
2023/12/15 18:20:32;;;;;;;8.57;6.50;;;;;;;16.08;38.62;101790.38;10467448;28;20237;-71
2023/12/15 18:25:34;;;;;;;11.07;8.40;;;;;;;16.18;38.71;101744.25;10458487;28;20243;-71
2023/12/15 18:30:35;;;;;;;12.07;8.73;;;;;;;16.83;37.70;101788.25;10468112;28;20613;-70
2023/12/15 18:35:37;;;;;;;10.53;8.57;;;;;;;15.58;39.69;101778.81;10468079;28;20249;-71
2023/12/15 18:40:41;;;;;;;10.33;7.47;;;;;;;16.10;39.18;101747.84;10467829;28;20543;-70
2023/12/15 18:45:43;;;;;;;10.60;7.37;;;;;;;17.61;36.87;101786.34;10467686;28;20747;-71
2023/12/15 18:50:45;;;;;;;9.63;7.27;;;;;;;16.76;37.25;101853.00;10456731;28;20744;-71
2023/12/15 18:55:47;;;;;;;9.87;7.37;;;;;;;17.64;36.79;101816.63;10464630;28;20223;-71
2023/12/15 19:00:49;;;;;;;11.77;6.57;;;;;;;17.50;36.93;101812.00;10464347;28;20239;-71
2023/12/15 19:05:51;;;;;;;10.23;7.23;;;;;;;15.43;40.64;101719.25;10462189;28;20717;-70
2023/12/15 19:10:52;;;;;;;11.17;7.27;;;;;;;15.94;39.09;101791.06;10471127;28;20289;-69
2023/12/15 19:15:54;;;;;;;10.37;7.63;;;;;;;14.87;40.71;101764.88;10463839;28;20317;-70
2023/12/15 19:20:56;;;;;;;11.50;8.40;;;;;;;16.35;38.87;101745.09;10464447;28;20239;-71
2023/12/15 19:25:58;;;;;;;11.00;6.67;;;;;;;14.12;42.00;101746.75;10464305;28;20496;-70
2023/12/15 19:30:59;;;;;;;9.23;6.57;;;;;;;16.04;39.45;101710.72;10478691;28;20229;-71
2023/12/15 19:36:01;;;;;;;7.40;6.13;;;;;;;15.43;39.69;101784.00;10476273;28;20311;-71
2023/12/15 19:41:03;;;;;;;6.83;5.77;;;;;;;15.52;39.67;101777.59;10474499;28;20265;-71
2023/12/15 19:46:05;;;;;;;8.10;6.03;;;;;;;14.16;41.71;101822.66;10472573;28;20231;-71
2023/12/15 19:51:21;;;;;;;7.60;5.87;;;;;;;14.81;40.98;101729.63;10480138;28;20300;-70
2023/12/15 19:56:24;;;;;;;8.60;6.43;;;;;;;15.76;40.38;101692.25;10474641;28;20331;-71
2023/12/15 20:01:31;;;;;;;9.97;7.90;;;;;;;15.21;40.18;101811.63;10472659;28;20700;-71
2023/12/15 20:06:36;;;;;;;11.00;7.10;;;;;;;14.78;40.90;101819.75;10474901;28;20730;-70
2023/12/15 20:11:38;;;;;;;11.07;7.20;;;;;;;16.73;38.64;101713.63;10564242;28;20386;-71
2023/12/15 20:16:40;;;;;;;11.30;7.50;;;;;;;15.98;39.72;101703.34;10562594;27;20250;-72
2023/12/15 20:21:42;;;;;;;13.07;8.37;;;;;;;13.14;43.44;101779.03;10570384;28;20648;-72
2023/12/15 20:26:44;;;;;;;12.03;9.13;;;;;;;15.12;40.41;101744.19;10562699;27;20715;-70
2023/12/15 20:31:45;;;;;;;11.77;9.27;;;;;;;15.90;39.14;101790.56;10569579;28;20328;-71
2023/12/15 20:36:47;;;;;;;12.30;9.37;;;;;;;15.58;39.55;101794.16;10566196;28;20268;-71
2023/12/15 20:41:49;;;;;;;12.97;8.80;;;;;;;16.50;38.49;101770.34;10567961;27;20233;-71
2023/12/15 20:46:51;;;;;;;10.03;8.00;;;;;;;15.87;39.44;101759.34;10566866;27;20240;-71
2023/12/15 20:51:53;;;;;;;12.43;8.43;;;;;;;15.84;39.32;101792.13;10567707;28;20229;-71
2023/12/15 20:56:58;;;;;;;10.60;8.20;;;;;;;15.86;38.83;101838.66;10552823;27;20312;-72
2023/12/15 21:01:59;;;;;;;9.97;7.63;;;;;;;15.59;39.37;101863.28;10577823;27;20272;-72
2023/12/15 21:07:03;;;;;;;11.67;7.67;;;;;;;16.60;38.57;101738.53;10574841;27;20233;-72
2023/12/15 21:12:06;;;;;;;11.03;8.87;;;;;;;16.91;38.21;101762.00;10576774;27;20258;-71
2023/12/15 21:17:08;;;;;;;10.53;8.03;;;;;;;13.49;42.04;101871.50;10561397;27;20676;-72
2023/12/15 21:22:10;;;;;;;12.03;7.80;;;;;;;15.39;39.56;101866.28;10564363;27;20214;-72
2023/12/15 21:27:11;;;;;;;11.43;7.77;;;;;;;17.14;37.64;101804.47;10575749;27;20229;-75
2023/12/15 21:32:13;;;;;;;12.60;8.27;;;;;;;15.86;39.09;101871.06;10573207;27;20220;-71
2023/12/15 21:37:15;;;;;;;11.83;8.77;;;;;;;15.55;39.91;101808.81;10577319;27;20225;-69
2023/12/15 21:42:17;;;;;;;14.47;10.10;;;;;;;14.67;40.82;101896.31;10550234;27;20214;-74
2023/12/15 21:47:18;;;;;;;14.50;10.00;;;;;;;16.30;38.88;101850.97;10573532;27;20618;-70
2023/12/15 21:52:23;;;;;;;14.33;10.43;;;;;;;16.11;39.25;101795.44;10571270;27;20275;-70
2023/12/15 21:57:25;;;;;;;14.33;10.40;;;;;;;16.61;38.48;101825.84;10565025;27;20247;-72
2023/12/15 22:02:26;;;;;;;10.90;8.03;;;;;;;15.88;39.08;101897.91;10566587;27;20686;-71
2023/12/15 22:07:28;;;;;;;12.70;8.93;;;;;;;14.88;40.44;101900.50;10571905;27;20260;-71
2023/12/15 22:12:29;;;;;;;12.63;9.07;;;;;;;17.48;37.01;101812.19;10557526;27;20237;-71
2023/12/15 22:17:32;;;;;;;13.23;8.50;;;;;;;13.17;41.97;101877.38;10565246;27;20246;-72
2023/12/15 22:22:35;;;;;;;11.20;8.37;;;;;;;16.12;39.17;101780.91;10576931;27;20245;-71
2023/12/15 22:27:41;;;;;;;11.73;7.83;;;;;;;16.78;37.71;101861.78;10573015;27;20242;-74
2023/12/15 22:32:43;;;;;;;13.37;8.30;;;;;;;16.46;38.00;101878.94;10573081;27;20303;-73
2023/12/15 22:37:45;;;;;;;10.50;8.50;;;;;;;16.94;37.51;101859.00;10568358;27;20317;-71
2023/12/15 22:42:47;;;;;;;12.17;8.80;;;;;;;17.15;37.07;101855.69;10568963;27;20312;-70
2023/12/15 22:47:48;;;;;;;11.67;9.17;;;;;;;17.48;36.72;101852.78;10567344;27;20230;-70
2023/12/15 22:52:53;;;;;;;10.57;8.20;;;;;;;16.70;37.16;101948.31;10561817;27;20737;-72
2023/12/15 22:57:55;;;;;;;9.63;8.10;;;;;;;15.86;39.07;101884.56;10565998;27;20745;-72
2023/12/15 23:02:57;;;;;;;9.17;7.73;;;;;;;15.74;38.71;101917.44;10564016;27;20501;-75
2023/12/15 23:07:59;;;;;;;12.23;8.57;;;;;;;15.62;39.26;101835.97;10549056;28;20232;-73
2023/12/15 23:13:00;;;;;;;10.20;7.77;;;;;;;12.77;45.00;101655.59;10548797;28;20239;-76
2023/12/15 23:18:02;;;;;;;10.03;6.97;;;;;;;13.75;42.41;101739.75;10573779;28;20238;-75
2023/12/15 23:23:06;;;;;;;11.07;8.33;;;;;;;14.22;41.87;101700.81;10562665;28;20325;-71
2023/12/15 23:28:08;;;;;;;11.53;7.87;;;;;;;15.42;39.89;101733.78;10570014;28;20267;-70
2023/12/15 23:33:09;;;;;;;11.33;7.80;;;;;;;14.88;40.56;101752.25;10554921;28;20596;-75
2023/12/15 23:38:12;;;;;;;12.40;8.67;;;;;;;15.02;40.28;101777.72;10563916;28;20246;-69
2023/12/15 23:43:13;;;;;;;11.07;8.33;;;;;;;15.67;39.38;101772.41;10545237;28;20276;-69
2023/12/15 23:48:17;;;;;;;12.33;8.83;;;;;;;16.35;38.31;101799.13;10565528;28;20767;-70
2023/12/15 23:53:18;;;;;;;11.20;8.27;;;;;;;15.18;38.96;101944.09;10560837;28;20268;-70
2023/12/15 23:58:23;;;;;;;11.67;9.27;;;;;;;15.53;38.83;101970.00;10570731;28;20234;-71
